Time;durP1;ratioP1;P1;durP2;ratioP2;P2;SDS_P1;SDS_P2;PMS_P1;PMS_P2;Temp;Humidity;BMP_temperature;BMP_pressure;BME280_temperature;BME280_humidity;BME280_pressure;Samples;Min_cycle;Max_cycle;Signal;HPM_P1;HPM_P2
2023/08/05 00:00:14;;;;;;;9.60;2.83;;;16.20;99.90;;;;;;5043151;28;20044;-78
2023/08/05 00:02:40;;;;;;;9.70;3.05;;;16.20;99.90;;;;;;5064772;28;20119;-78
2023/08/05 00:05:07;;;;;;;8.48;3.00;;;16.20;99.90;;;;;;5049708;28;20079;-78
2023/08/05 00:07:33;;;;;;;8.60;3.00;;;16.20;99.90;;;;;;5056672;28;20036;-78
2023/08/05 00:09:58;;;;;;;8.32;3.03;;;16.20;99.90;;;;;;5062794;28;20574;-78
2023/08/05 00:12:24;;;;;;;9.38;3.10;;;16.20;99.90;;;;;;5021713;28;20109;-78
2023/08/05 00:14:50;;;;;;;9.30;3.15;;;16.10;99.90;;;;;;5065566;28;20097;-78
2023/08/05 00:17:16;;;;;;;6.72;2.72;;;16.10;99.90;;;;;;5060115;28;21370;-78
2023/08/05 00:19:44;;;;;;;8.23;3.20;;;16.10;99.90;;;;;;5065670;28;20078;-78
2023/08/05 00:22:10;;;;;;;8.43;3.00;;;16.10;99.90;;;;;;5045449;28;20032;-78
2023/08/05 00:24:36;;;;;;;13.73;3.38;;;16.00;99.90;;;;;;5062936;28;20028;-78
2023/08/05 00:27:02;;;;;;;9.10;2.80;;;16.00;99.90;;;;;;5041761;28;20515;-78
2023/08/05 00:29:30;;;;;;;9.98;3.15;;;16.00;99.90;;;;;;5045467;28;20052;-78
2023/08/05 00:31:56;;;;;;;9.45;2.85;;;16.00;99.90;;;;;;5043477;28;20194;-78
2023/08/05 00:34:22;;;;;;;10.07;3.42;;;16.00;99.90;;;;;;5060510;28;20059;-78
2023/08/05 00:36:47;;;;;;;13.68;3.30;;;15.90;99.90;;;;;;5062603;28;20544;-78
2023/08/05 00:39:14;;;;;;;9.07;2.97;;;15.90;99.90;;;;;;5046475;28;20037;-78
2023/08/05 00:41:39;;;;;;;9.40;3.15;;;15.90;99.90;;;;;;5043784;28;20042;-78
2023/08/05 00:44:05;;;;;;;9.27;3.15;;;15.80;99.90;;;;;;5045308;28;20040;-78
2023/08/05 00:46:31;;;;;;;8.10;3.17;;;15.80;99.90;;;;;;5036590;28;20120;-79
2023/08/05 00:48:57;;;;;;;8.80;2.83;;;15.80;99.90;;;;;;5041753;28;20045;-78
2023/08/05 00:51:23;;;;;;;10.77;3.35;;;15.80;99.90;;;;;;5032824;28;20043;-78
2023/08/05 00:53:50;;;;;;;10.55;3.30;;;15.80;99.90;;;;;;5062711;28;20041;-78
2023/08/05 00:56:16;;;;;;;15.20;3.65;;;15.70;99.90;;;;;;5051942;28;20110;-78
2023/08/05 00:58:43;;;;;;;8.18;2.95;;;15.70;99.90;;;;;;5058256;28;20041;-78
2023/08/05 01:01:10;;;;;;;9.07;3.47;;;15.70;99.90;;;;;;5041700;28;20067;-78
2023/08/05 01:03:36;;;;;;;10.05;3.55;;;15.70;99.90;;;;;;5046996;28;20029;-78
2023/08/05 01:06:04;;;;;;;9.80;3.20;;;15.60;99.90;;;;;;5064875;28;20040;-78
2023/08/05 01:08:31;;;;;;;9.82;3.25;;;15.70;99.90;;;;;;5059545;28;20068;-78
2023/08/05 01:10:56;;;;;;;10.57;3.42;;;15.60;99.90;;;;;;5062108;28;20106;-78
2023/08/05 01:13:22;;;;;;;9.50;3.10;;;15.60;99.90;;;;;;5062656;28;20486;-78
2023/08/05 01:15:48;;;;;;;8.77;3.00;;;15.60;99.90;;;;;;5032095;28;20088;-78
2023/08/05 01:18:15;;;;;;;9.80;3.38;;;15.60;99.90;;;;;;5063769;28;20218;-78
2023/08/05 01:20:50;;;;;;;9.43;3.60;;;15.50;99.90;;;;;;5062148;28;20036;-78
2023/08/05 01:23:37;;;;;;;9.15;3.47;;;15.50;99.90;;;;;;5063253;28;20040;-79
2023/08/05 01:26:04;;;;;;;10.45;3.67;;;15.50;99.90;;;;;;5057785;28;20066;-78
2023/08/05 01:28:32;;;;;;;10.48;3.92;;;15.50;99.90;;;;;;5058875;28;20108;-78
2023/08/05 01:31:00;;;;;;;9.68;3.72;;;15.40;99.90;;;;;;5029506;28;20068;-78
2023/08/05 01:33:27;;;;;;;12.30;3.35;;;15.50;99.90;;;;;;5048865;28;20044;-78
2023/08/05 01:35:52;;;;;;;10.30;3.53;;;15.40;99.90;;;;;;5047082;28;20045;-78
2023/08/05 01:38:18;;;;;;;11.20;3.35;;;15.40;99.90;;;;;;5057592;28;20086;-78
2023/08/05 01:40:45;;;;;;;12.23;3.35;;;15.30;99.90;;;;;;5061925;28;20365;-78
2023/08/05 01:43:11;;;;;;;12.63;3.85;;;15.30;99.90;;;;;;5063499;28;20036;-78
2023/08/05 01:45:37;;;;;;;10.10;3.70;;;15.30;99.90;;;;;;5061759;28;20406;-78
2023/08/05 01:48:03;;;;;;;9.98;3.70;;;15.20;99.90;;;;;;5030392;28;20041;-78
2023/08/05 01:50:28;;;;;;;11.13;3.67;;;15.20;99.90;;;;;;5060266;28;20342;-78
2023/08/05 01:52:54;;;;;;;12.02;4.13;;;15.10;99.90;;;;;;5056026;28;20041;-78
2023/08/05 01:55:20;;;;;;;9.93;3.35;;;15.10;99.90;;;;;;5062402;28;20036;-78
2023/08/05 01:57:46;;;;;;;10.68;3.80;;;15.00;99.90;;;;;;5062089;28;20041;-78
2023/08/05 02:00:12;;;;;;;11.27;3.70;;;15.00;99.90;;;;;;5025644;28;20044;-78
2023/08/05 02:02:38;;;;;;;10.68;3.50;;;14.90;99.90;;;;;;5052149;28;20052;-78
2023/08/05 02:05:04;;;;;;;9.32;3.80;;;14.90;99.90;;;;;;5041930;28;20461;-78
2023/08/05 02:07:30;;;;;;;11.75;3.55;;;14.90;99.90;;;;;;5063183;28;20048;-78
2023/08/05 02:09:55;;;;;;;9.57;3.80;;;14.90;99.90;;;;;;5045349;28;20043;-78
2023/08/05 02:12:21;;;;;;;9.38;3.65;;;14.80;99.90;;;;;;5059012;28;20036;-78
2023/08/05 02:14:47;;;;;;;14.60;4.00;;;14.80;99.90;;;;;;5025495;28;20091;-78
2023/08/05 02:17:12;;;;;;;10.00;3.95;;;14.80;99.90;;;;;;5044850;28;20036;-78
2023/08/05 02:19:38;;;;;;;12.95;3.80;;;14.70;99.90;;;;;;5028052;28;20120;-78
2023/08/05 02:22:04;;;;;;;10.65;3.88;;;14.70;99.90;;;;;;5025227;28;20241;-78
2023/08/05 02:24:29;;;;;;;8.40;3.65;;;14.70;99.90;;;;;;5061592;28;20066;-78
2023/08/05 02:26:55;;;;;;;13.82;4.03;;;14.70;99.90;;;;;;5045694;28;20409;-78
2023/08/05 02:29:21;;;;;;;10.02;3.78;;;14.70;99.90;;;;;;5044739;28;20133;-78
2023/08/05 02:31:47;;;;;;;11.70;3.80;;;14.70;99.90;;;;;;5028698;28;20211;-78
2023/08/05 02:34:12;;;;;;;9.85;3.75;;;14.70;99.90;;;;;;5045318;28;20036;-78
2023/08/05 02:36:38;;;;;;;11.05;4.03;;;14.70;99.90;;;;;;5013852;28;20059;-78
2023/08/05 02:39:04;;;;;;;9.68;3.55;;;14.60;99.90;;;;;;5044609;28;20056;-78
2023/08/05 02:41:29;;;;;;;8.93;3.72;;;14.60;99.90;;;;;;5045996;28;20040;-78
2023/08/05 02:43:55;;;;;;;9.50;3.55;;;14.60;99.90;;;;;;5044151;28;20423;-78
2023/08/05 02:46:21;;;;;;;11.75;4.13;;;14.60;99.90;;;;;;5028753;28;20037;-78
2023/08/05 02:48:46;;;;;;;9.55;3.97;;;14.50;99.90;;;;;;5061792;28;20513;-78
2023/08/05 02:51:12;;;;;;;10.43;3.75;;;14.50;99.90;;;;;;5045152;28;20113;-78
2023/08/05 02:53:38;;;;;;;9.65;3.70;;;14.50;99.90;;;;;;5046915;28;20037;-78
2023/08/05 02:56:03;;;;;;;10.80;3.92;;;14.40;99.90;;;;;;5027982;28;20676;-78
2023/08/05 02:58:29;;;;;;;10.55;3.92;;;14.40;99.90;;;;;;5027355;28;20065;-78
2023/08/05 03:01:04;;;;;;;10.95;3.88;;;14.40;99.90;;;;;;5027769;28;20044;-78
2023/08/05 03:03:30;;;;;;;10.02;3.63;;;14.40;99.90;;;;;;5041599;28;20083;-78
2023/08/05 03:05:56;;;;;;;11.63;4.22;;;14.40;99.90;;;;;;5043133;28;20068;-78
2023/08/05 03:08:21;;;;;;;10.35;3.63;;;14.40;99.90;;;;;;5028640;28;20603;-78
2023/08/05 03:10:58;;;;;;;10.48;3.70;;;14.40;99.90;;;;;;5042176;28;20127;-78
2023/08/05 03:13:24;;;;;;;10.02;3.85;;;14.40;99.90;;;;;;5043138;28;20117;-78
2023/08/05 03:15:51;;;;;;;13.18;4.07;;;14.30;99.90;;;;;;5055585;28;20553;-78
2023/08/05 03:18:17;;;;;;;9.50;3.47;;;14.30;99.90;;;;;;5038629;28;20036;-78
2023/08/05 03:20:43;;;;;;;11.05;3.67;;;14.30;99.90;;;;;;5048682;28;20041;-78
2023/08/05 03:23:10;;;;;;;9.40;3.88;;;14.30;99.90;;;;;;5049370;28;20056;-78
2023/08/05 03:25:37;;;;;;;11.43;3.88;;;14.30;99.90;;;;;;5050050;28;20040;-78
2023/08/05 03:28:03;;;;;;;10.50;3.75;;;14.30;99.90;;;;;;5060955;28;20044;-78
2023/08/05 03:30:29;;;;;;;10.52;4.07;;;14.30;99.90;;;;;;5065354;28;20044;-78
2023/08/05 03:32:54;;;;;;;10.20;3.75;;;14.30;99.90;;;;;;5045782;28;20546;-78
2023/08/05 03:35:20;;;;;;;11.40;3.70;;;14.30;99.90;;;;;;5048170;28;20048;-78
2023/08/05 03:37:46;;;;;;;9.80;3.90;;;14.40;99.90;;;;;;5063596;28;20108;-78
2023/08/05 03:40:13;;;;;;;11.00;4.10;;;14.40;99.90;;;;;;5035315;28;20044;-78
2023/08/05 03:42:39;;;;;;;10.07;3.95;;;14.40;99.90;;;;;;5009359;28;20044;-78
2023/08/05 03:45:06;;;;;;;8.23;3.50;;;14.40;99.90;;;;;;5049644;28;20063;-78
2023/08/05 03:47:32;;;;;;;10.15;4.22;;;14.70;99.90;;;;;;5047472;28;20132;-78
2023/08/05 03:49:58;;;;;;;12.00;4.10;;;14.40;99.90;;;;;;5059539;28;20145;-78
2023/08/05 03:52:26;;;;;;;11.43;4.07;;;14.50;99.90;;;;;;5064842;28;20119;-78
2023/08/05 03:54:52;;;;;;;9.23;4.00;;;14.50;99.90;;;;;;5065398;28;20078;-78
2023/08/05 03:57:18;;;;;;;9.45;4.03;;;14.40;99.90;;;;;;5064829;28;20040;-78
2023/08/05 03:59:45;;;;;;;10.40;3.97;;;14.40;99.90;;;;;;5047807;28;20041;-78
2023/08/05 04:02:11;;;;;;;10.98;4.28;;;14.40;99.90;;;;;;5064576;28;20501;-78
2023/08/05 04:04:37;;;;;;;11.02;4.15;;;14.40;99.90;;;;;;5063982;28;20036;-78
2023/08/05 04:07:03;;;;;;;10.73;4.20;;;14.40;99.90;;;;;;5065427;28;20047;-78
2023/08/05 04:09:28;;;;;;;10.20;4.28;;;14.40;99.90;;;;;;5015344;28;20036;-78
2023/08/05 04:11:55;;;;;;;9.95;4.25;;;14.40;99.90;;;;;;5048697;28;20040;-78
2023/08/05 04:14:23;;;;;;;11.38;4.20;;;14.40;99.90;;;;;;5064398;28;20043;-78
2023/08/05 04:16:48;;;;;;;10.00;3.95;;;14.40;99.90;;;;;;5064656;28;20063;-78
2023/08/05 04:19:18;;;;;;;10.88;3.95;;;14.40;99.90;;;;;;5046465;28;20521;-78
2023/08/05 04:21:47;;;;;;;10.85;3.90;;;14.40;99.90;;;;;;5063425;28;20374;-78
2023/08/05 04:24:19;;;;;;;12.35;4.10;;;14.40;99.90;;;;;;5051391;28;20036;-78
2023/08/05 04:26:45;;;;;;;9.82;4.07;;;14.50;99.90;;;;;;5039429;28;20060;-78
2023/08/05 04:29:11;;;;;;;9.48;3.80;;;14.40;99.90;;;;;;5039516;28;20048;-78
2023/08/05 04:31:38;;;;;;;10.25;4.25;;;14.50;99.90;;;;;;5036138;28;20057;-78
2023/08/05 04:34:04;;;;;;;10.48;3.78;;;14.50;99.90;;;;;;5023563;28;20048;-78
2023/08/05 04:36:30;;;;;;;12.13;4.50;;;14.50;99.90;;;;;;5032294;28;20036;-78
2023/08/05 04:38:59;;;;;;;10.73;4.07;;;14.50;99.90;;;;;;5051861;28;20032;-79
2023/08/05 04:41:24;;;;;;;10.63;4.35;;;14.50;99.90;;;;;;5035950;28;20041;-78
2023/08/05 04:43:50;;;;;;;12.82;4.30;;;14.60;99.90;;;;;;5027401;28;20410;-78
2023/08/05 04:46:16;;;;;;;9.98;4.50;;;14.60;99.90;;;;;;5029950;28;20473;-78
2023/08/05 04:48:42;;;;;;;11.40;4.30;;;14.60;99.90;;;;;;5045982;28;20044;-78
2023/08/05 04:51:07;;;;;;;9.77;3.90;;;14.60;99.90;;;;;;5032294;28;20064;-78
2023/08/05 04:53:33;;;;;;;9.10;3.95;;;14.70;99.90;;;;;;5031528;28;20089;-78
2023/08/05 04:55:59;;;;;;;9.63;3.83;;;14.70;99.90;;;;;;5043175;28;20502;-78
2023/08/05 04:58:24;;;;;;;13.45;4.68;;;14.80;99.90;;;;;;5031056;28;20040;-78
2023/08/05 05:00:50;;;;;;;10.13;4.07;;;14.80;99.90;;;;;;5028221;28;20037;-78
2023/08/05 05:03:16;;;;;;;10.60;3.70;;;14.90;99.90;;;;;;5063124;28;20040;-78
2023/08/05 05:05:45;;;;;;;10.30;3.70;;;15.00;99.90;;;;;;5059282;28;20047;-78
2023/08/05 05:08:10;;;;;;;14.07;3.60;;;15.00;99.90;;;;;;5047628;28;20064;-78
2023/08/05 05:10:36;;;;;;;9.35;3.40;;;15.10;99.90;;;;;;5061587;28;20075;-78
2023/08/05 05:13:02;;;;;;;12.13;3.97;;;15.20;99.90;;;;;;5047401;28;20064;-78
2023/08/05 05:15:28;;;;;;;10.68;3.00;;;15.20;99.90;;;;;;5062847;28;20097;-78
2023/08/05 05:17:53;;;;;;;9.23;3.22;;;15.30;99.90;;;;;;5040664;28;20055;-78
2023/08/05 05:20:19;;;;;;;9.23;3.30;;;15.40;99.90;;;;;;5062738;28;20033;-78
2023/08/05 05:22:45;;;;;;;8.70;3.33;;;15.40;99.90;;;;;;5046919;28;20096;-78
2023/08/05 05:25:10;;;;;;;10.25;3.67;;;15.40;99.90;;;;;;5063930;28;20068;-78
2023/08/05 05:27:36;;;;;;;10.25;3.35;;;15.50;99.90;;;;;;5058485;28;20044;-78
2023/08/05 05:30:03;;;;;;;9.23;3.30;;;15.60;99.90;;;;;;5047700;28;20515;-78
2023/08/05 05:32:28;;;;;;;9.50;3.40;;;15.60;99.90;;;;;;5058049;28;20529;-79
2023/08/05 05:34:54;;;;;;;8.82;3.05;;;15.60;99.90;;;;;;5041538;28;20336;-78
2023/08/05 05:37:20;;;;;;;10.10;3.40;;;15.70;99.90;;;;;;5045597;28;20040;-78
2023/08/05 05:39:46;;;;;;;9.45;3.30;;;15.70;99.90;;;;;;5040317;28;20052;-79
2023/08/05 05:42:12;;;;;;;10.15;3.03;;;15.70;99.90;;;;;;5057730;28;20051;-78
2023/08/05 05:44:40;;;;;;;9.20;3.10;;;15.80;99.90;;;;;;5031718;28;20029;-78
2023/08/05 05:47:07;;;;;;;10.02;3.28;;;15.90;99.90;;;;;;5024663;28;20037;-78
2023/08/05 05:49:34;;;;;;;8.23;2.92;;;16.00;99.90;;;;;;5058713;28;20032;-78
2023/08/05 05:51:59;;;;;;;10.95;3.42;;;16.10;99.90;;;;;;5072651;28;20052;-78
2023/08/05 05:54:25;;;;;;;9.00;3.10;;;16.20;99.90;;;;;;5053123;28;20041;-78
2023/08/05 05:56:51;;;;;;;10.68;3.20;;;16.20;99.90;;;;;;5069278;28;20406;-78
2023/08/05 05:59:17;;;;;;;8.20;3.15;;;16.30;99.90;;;;;;5063907;28;20033;-78
2023/08/05 06:01:43;;;;;;;9.45;3.20;;;16.30;99.90;;;;;;5051530;28;20029;-78
2023/08/05 06:04:09;;;;;;;9.88;2.92;;;16.30;99.90;;;;;;5048505;28;20037;-78
2023/08/05 06:06:36;;;;;;;8.50;3.00;;;16.30;99.90;;;;;;5050152;28;20055;-78
2023/08/05 06:09:03;;;;;;;8.48;2.90;;;16.30;99.90;;;;;;5066008;28;20091;-79
2023/08/05 06:11:32;;;;;;;11.07;3.17;;;16.30;99.90;;;;;;5060155;28;20254;-78
2023/08/05 06:13:57;;;;;;;10.20;2.85;;;16.30;99.90;;;;;;5076574;28;20054;-78
2023/08/05 06:16:23;;;;;;;9.43;3.20;;;16.30;99.90;;;;;;5051128;28;20493;-78
2023/08/05 06:18:49;;;;;;;8.20;3.00;;;16.30;99.90;;;;;;5064499;28;20028;-79
2023/08/05 06:21:14;;;;;;;8.05;2.53;;;16.30;99.90;;;;;;5046189;28;20581;-78
2023/08/05 06:23:40;;;;;;;9.38;2.72;;;16.40;99.90;;;;;;5062716;28;20089;-78
2023/08/05 06:26:06;;;;;;;9.15;2.80;;;16.40;99.90;;;;;;5037560;28;20579;-78
2023/08/05 06:28:31;;;;;;;9.18;2.72;;;16.40;99.90;;;;;;5035466;28;20036;-78
2023/08/05 06:30:57;;;;;;;8.60;2.75;;;16.50;99.90;;;;;;5029801;28;20067;-78
2023/08/05 06:33:23;;;;;;;9.13;2.97;;;16.60;99.90;;;;;;5064806;28;20044;-78
2023/08/05 06:35:49;;;;;;;7.38;2.60;;;16.70;99.90;;;;;;5064470;28;20044;-79
2023/08/05 06:38:14;;;;;;;9.52;2.65;;;16.80;99.90;;;;;;5066444;28;20068;-78
2023/08/05 06:40:41;;;;;;;8.55;2.60;;;16.80;99.90;;;;;;5050622;28;20059;-79
2023/08/05 06:43:07;;;;;;;6.68;2.40;;;16.90;99.90;;;;;;5065522;28;20040;-78
2023/08/05 06:45:32;;;;;;;7.65;2.80;;;16.90;99.90;;;;;;5068734;28;20094;-78
2023/08/05 06:47:58;;;;;;;8.93;2.65;;;17.00;99.90;;;;;;5066106;28;20051;-78
2023/08/05 06:50:24;;;;;;;7.07;2.38;;;17.00;99.90;;;;;;5033499;28;20622;-78
2023/08/05 06:52:50;;;;;;;16.05;2.85;;;17.00;99.90;;;;;;5064577;28;20128;-78
2023/08/05 06:55:18;;;;;;;7.80;2.50;;;17.00;99.90;;;;;;5032906;28;20462;-78
2023/08/05 06:57:48;;;;;;;7.68;2.60;;;17.10;99.90;;;;;;5067130;28;20045;-78
2023/08/05 07:00:14;;;;;;;7.65;2.45;;;17.30;99.90;;;;;;5066407;28;20116;-79
2023/08/05 07:02:40;;;;;;;6.75;2.35;;;17.40;99.90;;;;;;5063528;28;20036;-78
2023/08/05 07:05:05;;;;;;;8.02;2.55;;;17.60;99.90;;;;;;5067186;28;20153;-79
2023/08/05 07:07:31;;;;;;;7.40;2.40;;;17.60;99.90;;;;;;5061281;28;20056;-78
2023/08/05 07:10:01;;;;;;;7.72;2.22;;;17.80;99.90;;;;;;5048946;28;20048;-78
2023/08/05 07:12:27;;;;;;;8.02;2.30;;;17.90;99.90;;;;;;5050028;28;20103;-78
2023/08/05 07:14:53;;;;;;;9.68;2.70;;;18.00;99.90;;;;;;5035777;28;20060;-78
2023/08/05 07:17:20;;;;;;;9.65;2.53;;;18.30;99.90;;;;;;5063745;28;20405;-78
2023/08/05 07:19:46;;;;;;;8.57;2.40;;;18.40;99.90;;;;;;5038575;28;20036;-78
2023/08/05 07:22:12;;;;;;;7.97;2.40;;;18.40;99.90;;;;;;5048954;28;20036;-78
2023/08/05 07:24:37;;;;;;;10.00;2.50;;;18.40;99.90;;;;;;5066125;28;20037;-78
2023/08/05 07:27:04;;;;;;;6.53;2.03;;;18.30;99.90;;;;;;5061296;28;20839;-78
2023/08/05 07:29:30;;;;;;;6.78;2.30;;;18.20;99.90;;;;;;5046842;28;20071;-78
2023/08/05 07:31:55;;;;;;;8.38;2.20;;;18.20;99.90;;;;;;5065422;28;20056;-78
2023/08/05 07:34:22;;;;;;;7.78;2.65;;;18.10;99.90;;;;;;5057336;28;20049;-78
2023/08/05 07:36:47;;;;;;;6.43;2.20;;;18.00;99.90;;;;;;5034262;28;20391;-78
2023/08/05 07:39:13;;;;;;;8.63;2.30;;;18.00;99.90;;;;;;5050177;28;20047;-78
2023/08/05 07:41:39;;;;;;;7.05;2.40;;;17.90;99.90;;;;;;5046990;28;20033;-78
2023/08/05 07:44:07;;;;;;;7.78;2.33;;;17.90;99.90;;;;;;5065617;28;20044;-78
2023/08/05 07:46:37;;;;;;;6.90;2.50;;;17.90;99.90;;;;;;5047789;28;20492;-78
2023/08/05 07:49:03;;;;;;;7.25;2.08;;;18.00;99.90;;;;;;5049907;28;20517;-78
2023/08/05 07:51:30;;;;;;;7.75;2.47;;;18.00;99.90;;;;;;5067371;28;20096;-78
2023/08/05 07:53:57;;;;;;;7.10;2.33;;;18.00;99.90;;;;;;5071642;28;20063;-78
2023/08/05 07:56:23;;;;;;;9.18;2.45;;;18.10;99.90;;;;;;5058899;28;20029;-79
2023/08/05 07:58:49;;;;;;;9.73;2.63;;;18.20;99.90;;;;;;5072446;28;20230;-78
2023/08/05 08:01:21;;;;;;;7.90;2.20;;;18.30;99.90;;;;;;5077854;28;20068;-78
2023/08/05 08:03:48;;;;;;;7.23;2.20;;;18.40;99.90;;;;;;5073312;28;20048;-79
2023/08/05 08:06:15;;;;;;;7.78;2.22;;;18.50;99.90;;;;;;5063071;28;20035;-79
2023/08/05 08:08:43;;;;;;;7.40;2.38;;;18.50;99.90;;;;;;5076258;28;20230;-79
2023/08/05 08:11:10;;;;;;;7.25;2.20;;;18.50;99.90;;;;;;5082785;28;20099;-78
2023/08/05 08:13:36;;;;;;;7.95;2.42;;;18.60;99.90;;;;;;5078637;28;20051;-79
2023/08/05 08:16:02;;;;;;;7.40;2.25;;;18.70;99.90;;;;;;5064913;28;20040;-78
2023/08/05 08:18:27;;;;;;;6.35;2.20;;;18.80;99.90;;;;;;5075828;28;20902;-78
2023/08/05 08:20:53;;;;;;;7.82;2.30;;;18.80;99.90;;;;;;5061745;28;20029;-78
2023/08/05 08:23:19;;;;;;;6.63;2.10;;;18.90;99.90;;;;;;5065852;28;20027;-78
2023/08/05 08:25:45;;;;;;;9.23;2.40;;;19.00;99.90;;;;;;5065803;28;21954;-78
2023/08/05 08:28:11;;;;;;;6.55;2.28;;;19.10;99.90;;;;;;5077615;28;20028;-79
2023/08/05 08:30:36;;;;;;;7.15;2.15;;;19.10;99.90;;;;;;5045945;28;20160;-78
2023/08/05 08:33:03;;;;;;;7.13;2.10;;;19.10;99.90;;;;;;5061557;28;20051;-78
2023/08/05 08:35:29;;;;;;;7.10;2.50;;;19.00;99.90;;;;;;5092167;27;20093;-78
2023/08/05 08:37:55;;;;;;;9.27;2.58;;;18.90;99.90;;;;;;5083425;28;20028;-78
2023/08/05 08:40:21;;;;;;;7.13;2.30;;;18.90;99.90;;;;;;5083154;28;20032;-78
2023/08/05 08:42:49;;;;;;;10.20;2.40;;;18.90;99.90;;;;;;5080325;28;20032;-78
2023/08/05 08:45:17;;;;;;;7.72;2.35;;;19.00;99.90;;;;;;5076038;28;20063;-78
2023/08/05 08:47:44;;;;;;;7.00;2.15;;;19.40;99.90;;;;;;5085552;28;20035;-78
2023/08/05 08:50:11;;;;;;;8.80;2.40;;;19.10;99.90;;;;;;5064991;28;20226;-78
2023/08/05 08:52:40;;;;;;;7.38;2.42;;;19.10;99.90;;;;;;5077995;28;20131;-78
2023/08/05 08:55:08;;;;;;;7.22;2.30;;;19.10;99.90;;;;;;5063607;28;21692;-79
2023/08/05 08:57:34;;;;;;;6.70;2.28;;;19.10;99.90;;;;;;5082281;28;20154;-79
2023/08/05 09:00:00;;;;;;;8.35;2.28;;;19.10;99.90;;;;;;5101421;27;20055;-79
2023/08/05 09:02:26;;;;;;;6.65;2.30;;;19.20;99.90;;;;;;5058841;28;20032;-78
2023/08/05 09:04:53;;;;;;;6.68;2.17;;;19.30;99.90;;;;;;5080150;28;20123;-79
2023/08/05 09:07:25;;;;;;;7.90;2.30;;;19.40;99.90;;;;;;5075722;28;20051;-79
2023/08/05 09:09:52;;;;;;;6.95;2.25;;;19.60;99.90;;;;;;5079184;28;20286;-78
2023/08/05 09:12:17;;;;;;;8.35;2.38;;;19.80;99.90;;;;;;5064948;28;20049;-78
2023/08/05 09:14:43;;;;;;;6.55;2.13;;;20.00;99.90;;;;;;5061150;28;20060;-79
2023/08/05 09:17:12;;;;;;;6.22;2.13;;;20.20;99.90;;;;;;5064921;28;20386;-79
2023/08/05 09:19:40;;;;;;;6.05;1.88;;;20.30;99.90;;;;;;5083262;28;20071;-79
2023/08/05 09:22:06;;;;;;;7.32;2.30;;;20.30;99.90;;;;;;5066501;28;20141;-78
2023/08/05 09:24:33;;;;;;;7.30;2.17;;;20.10;99.90;;;;;;5078814;28;20036;-78
2023/08/05 09:27:00;;;;;;;6.32;2.10;;;20.20;99.90;;;;;;5064254;28;20051;-78
2023/08/05 09:29:27;;;;;;;5.50;2.03;;;20.10;99.90;;;;;;5080658;28;20100;-77
2023/08/05 09:32:03;;;;;;;6.82;2.00;;;20.40;99.90;;;;;;5086463;27;20082;-78
2023/08/05 09:34:39;;;;;;;6.50;1.95;;;20.60;99.90;;;;;;5078801;28;20067;-78
2023/08/05 09:37:08;;;;;;;6.80;2.00;;;20.60;99.90;;;;;;5074564;28;21374;-78
2023/08/05 09:39:48;;;;;;;7.70;1.95;;;20.70;99.90;;;;;;5076358;28;20029;-78
2023/08/05 09:42:24;;;;;;;6.50;1.92;;;20.80;99.90;;;;;;5053117;28;20039;-79
2023/08/05 09:44:55;;;;;;;7.32;2.10;;;21.00;99.90;;;;;;5068834;28;20139;-78
2023/08/05 09:47:25;;;;;;;6.13;2.08;;;20.90;99.90;;;;;;5063436;28;20033;-78
2023/08/05 09:49:52;;;;;;;6.35;2.00;;;21.00;99.90;;;;;;5080202;28;20424;-78
2023/08/05 09:52:20;;;;;;;6.82;2.10;;;21.00;99.90;;;;;;5078630;28;20036;-78
2023/08/05 09:55:07;;;;;;;5.85;1.83;;;21.30;99.90;;;;;;5040775;28;20310;-78
2023/08/05 09:57:33;;;;;;;6.85;2.00;;;21.30;99.90;;;;;;5058666;28;20063;-78
2023/08/05 10:00:00;;;;;;;7.10;2.10;;;21.40;99.90;;;;;;5062023;28;20092;-78
2023/08/05 10:02:27;;;;;;;6.32;2.20;;;21.40;99.90;;;;;;5062927;28;20123;-78
2023/08/05 10:04:54;;;;;;;6.78;2.25;;;21.40;99.90;;;;;;5062685;28;20032;-78
2023/08/05 10:07:23;;;;;;;7.95;2.20;;;21.40;99.90;;;;;;5061136;28;20300;-79
2023/08/05 10:09:50;;;;;;;5.20;1.90;;;21.30;99.90;;;;;;5061797;28;20258;-78
2023/08/05 10:12:30;;;;;;;9.27;2.30;;;21.30;99.90;;;;;;5080075;28;20061;-79
2023/08/05 10:14:59;;;;;;;9.40;2.72;;;21.20;99.90;;;;;;5054708;28;20103;-78
2023/08/05 10:17:25;;;;;;;8.40;2.45;;;21.20;99.90;;;;;;5079959;28;20037;-78
2023/08/05 10:19:52;;;;;;;13.82;3.65;;;21.10;99.90;;;;;;5077388;28;20209;-78
2023/08/05 10:22:25;;;;;;;11.35;3.17;;;20.90;99.90;;;;;;5078460;28;20175;-78
2023/08/05 10:24:58;;;;;;;7.38;2.22;;;20.80;99.90;;;;;;5071942;28;20282;-78
2023/08/05 10:27:38;;;;;;;6.13;2.00;;;20.60;99.90;;;;;;5078042;28;20048;-78
2023/08/05 10:30:08;;;;;;;5.22;1.90;;;20.50;99.90;;;;;;5057016;28;20051;-78
2023/08/05 10:32:35;;;;;;;7.03;2.35;;;20.40;99.90;;;;;;5070367;28;20066;-79
2023/08/05 10:35:23;;;;;;;5.15;2.00;;;20.40;99.90;;;;;;5070770;28;20159;-78
2023/08/05 10:37:50;;;;;;;6.78;2.03;;;20.40;99.90;;;;;;5058113;28;20111;-79
2023/08/05 10:40:37;;;;;;;7.05;2.00;;;20.30;99.90;;;;;;5056987;28;20040;-79
2023/08/05 10:43:03;;;;;;;8.75;2.00;;;20.50;99.90;;;;;;5060990;28;20032;-79
2023/08/05 10:45:29;;;;;;;7.05;2.03;;;20.80;99.90;;;;;;5080585;28;20040;-79
2023/08/05 10:47:55;;;;;;;6.13;1.88;;;21.10;99.90;;;;;;5078639;28;20449;-78
2023/08/05 10:50:20;;;;;;;5.45;1.98;;;21.20;99.90;;;;;;5044054;28;20357;-78
2023/08/05 10:52:49;;;;;;;5.80;1.90;;;21.20;99.90;;;;;;5059898;28;20244;-78
2023/08/05 10:55:15;;;;;;;5.82;1.80;;;21.20;99.90;;;;;;5065264;28;20050;-78
2023/08/05 10:57:40;;;;;;;6.57;1.90;;;21.20;99.90;;;;;;5076119;28;20103;-78
2023/08/05 11:00:07;;;;;;;6.10;2.08;;;21.40;99.90;;;;;;5058290;28;20092;-78
2023/08/05 11:02:33;;;;;;;6.05;2.13;;;21.30;99.90;;;;;;5062492;28;20092;-79
2023/08/05 11:05:07;;;;;;;6.70;2.00;;;21.30;99.90;;;;;;5059787;28;20291;-78
2023/08/05 11:07:36;;;;;;;6.95;2.00;;;21.10;99.90;;;;;;5046946;28;20068;-79
2023/08/05 11:10:04;;;;;;;6.30;2.10;;;21.20;99.90;;;;;;5071146;28;20321;-79
2023/08/05 11:12:30;;;;;;;4.80;1.90;;;21.30;99.90;;;;;;5056071;28;20254;-78
2023/08/05 11:14:56;;;;;;;8.05;2.30;;;21.20;99.90;;;;;;5054802;28;20045;-79
2023/08/05 11:17:22;;;;;;;6.00;1.92;;;21.10;99.90;;;;;;5056621;28;20237;-78
2023/08/05 11:19:55;;;;;;;6.70;1.95;;;21.10;99.90;;;;;;5075148;28;20102;-79
2023/08/05 11:22:24;;;;;;;6.28;2.20;;;21.30;99.90;;;;;;5068328;28;20047;-78
2023/08/05 11:25:00;;;;;;;6.60;2.15;;;21.30;99.90;;;;;;5073893;28;20095;-79
2023/08/05 11:27:34;;;;;;;6.25;2.25;;;21.40;99.90;;;;;;5071502;28;20049;-79
2023/08/05 11:30:11;;;;;;;6.20;2.20;;;21.50;99.90;;;;;;5054481;28;20182;-79
2023/08/05 11:32:57;;;;;;;6.50;2.33;;;21.60;99.90;;;;;;5059834;28;20037;-79
2023/08/05 11:35:24;;;;;;;8.30;2.10;;;21.80;99.90;;;;;;5059598;28;20119;-79
2023/08/05 11:37:50;;;;;;;6.47;2.45;;;21.60;99.90;;;;;;5056285;28;20167;-79
2023/08/05 11:40:16;;;;;;;7.03;2.22;;;21.80;99.90;;;;;;5057199;28;20040;-79
2023/08/05 11:42:42;;;;;;;6.47;2.30;;;21.80;99.90;;;;;;5078011;28;20315;-79
2023/08/05 11:45:13;;;;;;;7.03;2.20;;;21.70;99.90;;;;;;5075572;28;20078;-79
2023/08/05 11:47:39;;;;;;;7.30;2.33;;;21.80;99.90;;;;;;5076337;28;20040;-79
2023/08/05 11:50:06;;;;;;;6.95;1.92;;;21.80;99.90;;;;;;5060825;28;20081;-79
2023/08/05 11:52:32;;;;;;;6.00;1.98;;;21.70;99.90;;;;;;5058083;28;20270;-79
2023/08/05 11:54:59;;;;;;;7.25;2.05;;;21.70;99.90;;;;;;5060847;28;20036;-79
2023/08/05 11:57:26;;;;;;;8.25;2.13;;;21.70;99.90;;;;;;5059647;28;20017;-79
2023/08/05 11:59:55;;;;;;;5.93;2.13;;;21.90;99.90;;;;;;5074515;28;20033;-79
2023/08/05 12:02:24;;;;;;;7.30;2.13;;;21.80;99.90;;;;;;5075352;28;20282;-79
2023/08/05 12:04:55;;;;;;;6.00;2.08;;;21.90;99.90;;;;;;5075325;28;20212;-79
2023/08/05 12:07:21;;;;;;;5.90;2.00;;;21.90;99.90;;;;;;5075742;28;20112;-79
2023/08/05 12:10:05;;;;;;;4.78;1.73;;;21.80;99.90;;;;;;5054780;28;20047;-79
2023/08/05 12:12:31;;;;;;;7.72;2.30;;;21.70;99.90;;;;;;5075650;28;20048;-79
2023/08/05 12:15:10;;;;;;;7.18;2.33;;;21.50;99.90;;;;;;5057173;28;20059;-78
2023/08/05 12:17:35;;;;;;;6.25;2.13;;;21.40;99.90;;;;;;5057052;28;20104;-79
2023/08/05 12:20:01;;;;;;;6.90;2.20;;;21.30;99.90;;;;;;5074955;28;20370;-79
2023/08/05 12:22:27;;;;;;;5.70;2.20;;;21.20;99.90;;;;;;5075715;28;20082;-79
2023/08/05 12:24:52;;;;;;;7.28;2.30;;;21.20;99.90;;;;;;5061289;28;20031;-79
2023/08/05 12:27:18;;;;;;;6.13;2.20;;;21.00;99.90;;;;;;5058761;28;20292;-79
2023/08/05 12:29:44;;;;;;;8.43;2.30;;;21.00;99.90;;;;;;5044649;28;20029;-79
2023/08/05 12:32:09;;;;;;;6.70;2.50;;;21.10;99.90;;;;;;5076343;28;20044;-79
2023/08/05 12:34:35;;;;;;;7.47;2.42;;;21.10;99.90;;;;;;5073819;28;20036;-79
2023/08/05 12:37:01;;;;;;;7.90;2.70;;;21.00;99.90;;;;;;5055065;28;20036;-79
2023/08/05 12:39:26;;;;;;;6.90;2.63;;;21.00;99.90;;;;;;5058919;28;20036;-78
2023/08/05 12:41:53;;;;;;;7.88;2.70;;;21.00;99.90;;;;;;5077943;28;20028;-79